createdAt,value
2018-01-24T00:00:17.231Z,6.90
2018-01-24T00:02:45.523Z,6.90
2018-01-24T00:05:13.064Z,6.90
2018-01-24T00:07:41.343Z,7.00
2018-01-24T00:10:09.660Z,6.90
2018-01-24T00:12:37.241Z,6.90
2018-01-24T00:15:04.769Z,7.00
2018-01-24T00:17:32.853Z,7.00
2018-01-24T00:20:00.425Z,7.00
2018-01-24T00:22:27.953Z,7.10
2018-01-24T00:24:55.477Z,7.10
2018-01-24T00:27:23.097Z,7.10
2018-01-24T00:29:50.614Z,7.00
2018-01-24T00:32:18.909Z,7.10
2018-01-24T00:34:46.462Z,7.00
2018-01-24T00:37:13.989Z,7.10
2018-01-24T00:39:41.781Z,7.10
2018-01-24T00:42:10.969Z,7.10
2018-01-24T00:44:39.275Z,7.20
2018-01-24T00:47:06.803Z,7.20
2018-01-24T00:49:35.114Z,7.20
2018-01-24T00:52:02.626Z,7.20
2018-01-24T00:54:30.929Z,7.30
2018-01-24T00:56:58.477Z,7.30
2018-01-24T00:59:26.760Z,7.20
2018-01-24T01:01:54.297Z,7.20
2018-01-24T01:04:22.603Z,7.30
2018-01-24T01:06:50.123Z,7.20
2018-01-24T01:09:17.636Z,7.30
2018-01-24T01:11:45.176Z,7.40
2018-01-24T01:14:12.715Z,7.30
2018-01-24T01:16:40.995Z,7.10
2018-01-24T01:19:09.294Z,7.10
2018-01-24T01:21:36.814Z,7.10
2018-01-24T01:24:05.109Z,7.20
2018-01-24T01:26:33.422Z,7.20
2018-01-24T01:29:00.939Z,7.20
2018-01-24T01:31:29.220Z,7.30
2018-01-24T01:33:57.526Z,7.30
2018-01-24T01:36:25.043Z,7.30
2018-01-24T01:38:53.329Z,7.30
2018-01-24T01:41:22.247Z,7.30
2018-01-24T01:43:50.555Z,7.30
2018-01-24T01:46:18.882Z,7.50
2018-01-24T01:48:46.427Z,7.50
2018-01-24T01:51:14.718Z,7.60
2018-01-24T01:53:42.234Z,7.50
2018-01-24T01:56:10.535Z,7.60
2018-01-24T01:58:38.815Z,7.70
2018-01-24T02:01:07.096Z,7.70
2018-01-24T02:03:35.416Z,7.70
2018-01-24T02:06:02.931Z,7.70
2018-01-24T02:08:31.211Z,7.70
2018-01-24T02:10:58.751Z,7.70
2018-01-24T02:13:27.045Z,7.70
2018-01-24T02:15:54.563Z,7.70
2018-01-24T02:18:22.095Z,7.70
2018-01-24T02:20:49.631Z,7.70
2018-01-24T02:23:17.187Z,7.70
2018-01-24T02:25:44.979Z,7.60
2018-01-24T02:28:12.511Z,7.60
2018-01-24T02:30:40.038Z,7.60
2018-01-24T02:33:07.591Z,7.60
2018-01-24T02:35:35.120Z,7.60
2018-01-24T02:38:02.639Z,7.60
2018-01-24T02:40:30.217Z,7.50
2018-01-24T02:42:57.735Z,7.60
2018-01-24T02:45:26.382Z,7.60
2018-01-24T02:47:53.910Z,7.60
2018-01-24T02:50:22.218Z,7.60
2018-01-24T02:52:50.681Z,7.60
2018-01-24T02:55:18.212Z,7.60
2018-01-24T02:57:45.750Z,7.50
2018-01-24T03:00:13.281Z,7.60
2018-01-24T03:02:40.799Z,7.60
2018-01-24T03:05:08.337Z,7.80
2018-01-24T03:07:36.619Z,7.90
2018-01-24T03:10:04.929Z,8.00
2018-01-24T03:12:32.443Z,7.90
2018-01-24T03:15:00.733Z,8.00
2018-01-24T03:17:29.037Z,8.10
2018-01-24T03:19:56.551Z,8.00
2018-01-24T03:22:24.850Z,8.10
2018-01-24T03:24:52.377Z,8.10
2018-01-24T03:27:20.674Z,8.10
2018-01-24T03:29:48.967Z,8.20
2018-01-24T03:32:16.478Z,8.20
2018-01-24T03:34:44.029Z,8.20
2018-01-24T03:37:11.541Z,8.20
2018-01-24T03:39:39.075Z,8.20
2018-01-24T03:42:07.385Z,8.20
2018-01-24T03:44:34.905Z,8.20
2018-01-24T03:47:03.225Z,8.20
2018-01-24T03:49:30.746Z,8.20
2018-01-24T03:51:59.024Z,8.00
2018-01-24T03:54:27.319Z,7.90
2018-01-24T03:56:54.831Z,7.90
2018-01-24T03:59:22.372Z,8.00
2018-01-24T04:01:49.896Z,8.00
2018-01-24T04:04:17.481Z,8.10
2018-01-24T04:06:45.025Z,8.20
2018-01-24T04:09:12.549Z,8.20
2018-01-24T04:11:40.097Z,8.20
2018-01-24T04:14:08.591Z,8.30
2018-01-24T04:16:37.258Z,8.40
2018-01-24T04:19:04.805Z,8.40
2018-01-24T04:21:32.337Z,8.40
2018-01-24T04:23:59.871Z,8.40
2018-01-24T04:26:27.391Z,8.40
2018-01-24T04:28:54.904Z,8.30
2018-01-24T04:31:22.450Z,8.30
2018-01-24T04:33:49.962Z,8.30
2018-01-24T04:36:17.509Z,8.30
2018-01-24T04:38:45.057Z,8.30
2018-01-24T04:41:12.584Z,8.20
2018-01-24T04:43:40.118Z,8.20
2018-01-24T04:46:08.409Z,8.20
2018-01-24T04:48:35.956Z,8.20
2018-01-24T04:51:04.248Z,8.40
2018-01-24T04:53:31.778Z,8.30
2018-01-24T04:55:59.306Z,8.40
2018-01-24T04:58:26.894Z,8.50
2018-01-24T05:00:54.404Z,8.50
2018-01-24T05:03:21.933Z,8.50
2018-01-24T05:05:50.207Z,8.60
2018-01-24T05:08:18.749Z,8.50
2018-01-24T05:10:46.497Z,8.50
2018-01-24T05:13:14.050Z,8.50
2018-01-24T05:15:41.577Z,8.50
2018-01-24T05:18:09.109Z,8.50
2018-01-24T05:33:57.967Z,8.70
2018-01-24T05:36:26.496Z,8.70
2018-01-24T05:38:54.025Z,8.80
2018-01-24T05:41:21.564Z,8.90
2018-01-24T05:43:49.853Z,8.90
2018-01-24T05:46:17.363Z,8.90
2018-01-24T05:48:44.901Z,8.90
2018-01-24T05:51:12.673Z,8.80
2018-01-24T05:53:40.193Z,8.80
2018-01-24T05:56:07.735Z,8.80
2018-01-24T05:58:36.110Z,8.80
2018-01-24T06:01:04.491Z,8.80
2018-01-24T06:03:32.031Z,8.80
2018-01-24T06:05:59.567Z,8.80
2018-01-24T06:08:27.114Z,8.70
2018-01-24T06:10:54.975Z,8.60
2018-01-24T06:13:22.528Z,8.60
2018-01-24T06:15:50.313Z,8.50
2018-01-24T06:18:17.841Z,8.50
2018-01-24T06:20:45.619Z,8.40
2018-01-24T06:23:13.173Z,8.50
2018-01-24T06:25:40.708Z,8.40
2018-01-24T06:28:09.001Z,8.40
2018-01-24T06:30:36.533Z,8.40
2018-01-24T06:33:04.849Z,8.20
2018-01-24T06:35:34.038Z,8.20
2018-01-24T06:38:01.703Z,8.20
2018-01-24T06:40:29.784Z,8.20
2018-01-24T06:42:57.354Z,8.20
2018-01-24T06:45:25.189Z,8.10
2018-01-24T06:47:52.738Z,8.10
2018-01-24T06:50:20.273Z,8.10
2018-01-24T06:52:48.569Z,7.90
2018-01-24T06:55:16.154Z,7.90
2018-01-24T06:57:43.692Z,7.90
2018-01-24T07:00:11.241Z,7.90
2018-01-24T07:02:39.530Z,7.80
2018-01-24T07:05:07.107Z,7.80
2018-01-24T07:07:34.649Z,7.80
2018-01-24T07:10:02.185Z,7.70
2018-01-24T07:12:42.455Z,7.70
2018-01-24T07:15:10.864Z,7.70
2018-01-24T07:17:38.413Z,7.70
2018-01-24T07:20:06.751Z,7.70
2018-01-24T07:22:35.058Z,7.60
2018-01-24T07:25:02.597Z,7.60
2018-01-24T07:27:30.898Z,7.50
2018-01-24T07:29:58.431Z,7.50
2018-01-24T07:32:26.725Z,7.40
2018-01-24T07:34:54.257Z,7.40
2018-01-24T07:37:22.557Z,7.40
2018-01-24T07:39:50.128Z,7.30
2018-01-24T07:42:17.669Z,7.40
2018-01-24T07:44:45.197Z,7.40
2018-01-24T07:47:12.747Z,7.50
2018-01-24T07:49:40.268Z,7.50
2018-01-24T07:52:07.779Z,7.50
2018-01-24T07:54:35.320Z,7.50
2018-01-24T07:57:02.865Z,7.60
2018-01-24T07:59:30.383Z,7.70
2018-01-24T08:01:57.937Z,7.80
2018-01-24T08:04:26.225Z,8.10
2018-01-24T08:06:53.739Z,8.00
2018-01-24T08:09:21.266Z,8.10
2018-01-24T08:11:48.789Z,8.10
2018-01-24T08:14:16.341Z,8.20
2018-01-24T08:16:44.622Z,8.40
2018-01-24T08:19:12.899Z,8.60
2018-01-24T08:21:41.190Z,8.70
2018-01-24T08:24:08.772Z,8.60
2018-01-24T08:26:36.535Z,8.60
2018-01-24T08:29:04.085Z,8.70
2018-01-24T08:31:31.603Z,8.80
2018-01-24T08:33:59.895Z,9.10
2018-01-24T08:36:27.436Z,9.10
2018-01-24T08:38:55.881Z,9.30
2018-01-24T08:41:23.395Z,9.30
2018-01-24T08:43:50.941Z,9.60
2018-01-24T08:46:18.485Z,9.50
2018-01-24T08:48:46.551Z,9.50
2018-01-24T08:51:14.378Z,9.60
2018-01-24T08:53:42.076Z,9.60
2018-01-24T08:56:10.410Z,9.90
2018-01-24T08:58:37.948Z,9.90
2018-01-24T09:01:05.462Z,9.90
2018-01-24T09:03:33.018Z,10.00
2018-01-24T09:06:00.568Z,10.40
2018-01-24T09:08:28.879Z,10.70
2018-01-24T09:10:57.192Z,10.80
2018-01-24T09:13:24.873Z,10.80
2018-01-24T09:15:52.425Z,10.90
2018-01-24T09:18:19.954Z,10.80
2018-01-24T09:20:47.553Z,11.00
2018-01-24T09:23:15.083Z,11.40
2018-01-24T09:25:42.612Z,11.20
2018-01-24T09:28:11.249Z,10.90
2018-01-24T09:30:38.770Z,10.90
2018-01-24T09:33:06.306Z,10.90
2018-01-24T09:35:34.634Z,11.50
2018-01-24T09:38:02.151Z,11.50
2018-01-24T09:40:30.469Z,12.00
2018-01-24T09:42:57.993Z,12.00
2018-01-24T09:45:26.301Z,12.50
2018-01-24T09:47:54.181Z,12.50
2018-01-24T09:50:21.714Z,12.30
2018-01-24T09:52:49.231Z,12.30
2018-01-24T09:55:16.765Z,12.60
2018-01-24T09:57:44.321Z,12.30
2018-01-24T10:00:11.853Z,12.40
2018-01-24T10:02:39.415Z,12.40
2018-01-24T10:05:06.931Z,12.50
2018-01-24T10:07:35.245Z,12.20
2018-01-24T10:10:02.779Z,12.20
2018-01-24T10:12:31.072Z,12.80
2018-01-24T10:14:58.625Z,12.80
2018-01-24T10:17:26.157Z,13.20
2018-01-24T10:19:53.689Z,13.50
2018-01-24T10:22:21.239Z,12.80
2018-01-24T10:24:48.755Z,13.00
2018-01-24T10:27:16.339Z,13.20
2018-01-24T10:29:43.939Z,13.30
2018-01-24T10:32:11.695Z,13.60
2018-01-24T10:34:40.743Z,13.90
2018-01-24T10:37:08.282Z,13.90
2018-01-24T10:39:36.573Z,14.30
2018-01-24T10:42:04.107Z,14.30
2018-01-24T10:44:32.391Z,14.80
2018-01-24T10:47:00.943Z,15.10
2018-01-24T10:49:30.515Z,15.20
2018-01-24T10:51:58.198Z,15.10
2018-01-24T10:54:25.749Z,15.40
2018-01-24T10:56:53.277Z,15.80
2018-01-24T10:59:20.831Z,15.50
2018-01-24T11:01:48.369Z,14.80
2018-01-24T11:04:16.668Z,14.30
2018-01-24T11:06:44.213Z,14.30
2018-01-24T11:09:12.491Z,15.30
2018-01-24T11:11:40.804Z,15.30
2018-01-24T11:14:08.324Z,15.30
2018-01-24T11:16:36.623Z,13.90
2018-01-24T11:19:04.259Z,13.80
2018-01-24T11:21:32.614Z,15.10
2018-01-24T11:24:01.110Z,15.10
2018-01-24T11:26:29.895Z,15.10
2018-01-24T11:28:58.269Z,14.50
2018-01-24T11:31:26.185Z,14.50
2018-01-24T11:33:53.992Z,14.30
2018-01-24T11:36:21.606Z,15.00
2018-01-24T11:38:49.147Z,14.90
2018-01-24T11:41:16.667Z,14.70
2018-01-24T11:43:44.186Z,15.30
2018-01-24T11:46:11.738Z,15.00
2018-01-24T11:48:39.274Z,14.90
2018-01-24T11:51:07.082Z,15.20
2018-01-24T11:53:34.625Z,14.80
2018-01-24T11:56:02.138Z,13.90
2018-01-24T11:58:30.428Z,13.60
2018-01-24T12:00:58.783Z,13.50
2018-01-24T12:03:27.105Z,13.50
2018-01-24T12:05:54.684Z,13.40
2018-01-24T12:08:22.236Z,13.90
2018-01-24T12:10:49.758Z,13.60
2018-01-24T12:13:18.084Z,14.10
2018-01-24T12:15:45.653Z,14.10
2018-01-24T12:18:13.175Z,14.40
2018-01-24T12:20:40.724Z,14.90
2018-01-24T12:23:08.281Z,14.70
2018-01-24T12:25:35.813Z,14.40
2018-01-24T12:28:03.347Z,14.20
2018-01-24T12:30:31.807Z,14.10
2018-01-24T12:32:59.388Z,13.80
2018-01-24T12:35:26.917Z,14.40
2018-01-24T12:37:54.436Z,14.30
2018-01-24T12:40:22.747Z,15.00
2018-01-24T12:42:50.403Z,15.00
2018-01-24T12:45:17.939Z,14.20
2018-01-24T12:47:46.218Z,14.50
2018-01-24T12:50:13.798Z,14.50
2018-01-24T12:52:42.075Z,14.20
2018-01-24T12:55:09.601Z,14.20
2018-01-24T12:57:37.906Z,14.00
2018-01-24T13:00:05.423Z,14.00
2018-01-24T13:02:32.945Z,13.90
2018-01-24T13:05:00.494Z,14.10
2018-01-24T13:07:28.026Z,14.00
2018-01-24T13:09:55.559Z,14.30
2018-01-24T13:12:23.487Z,14.40
2018-01-24T13:14:51.046Z,14.40
2018-01-24T13:17:18.575Z,14.00
2018-01-24T13:19:46.101Z,13.90
2018-01-24T13:22:13.634Z,14.00
2018-01-24T13:24:41.171Z,14.30
2018-01-24T13:27:08.697Z,14.30
2018-01-24T13:29:36.975Z,14.70
2018-01-24T13:32:05.271Z,14.70
2018-01-24T13:34:33.163Z,14.70
2018-01-24T13:37:00.713Z,14.60
2018-01-24T13:39:28.240Z,14.40
2018-01-24T13:41:55.762Z,14.60
2018-01-24T13:44:23.392Z,14.80
2018-01-24T13:46:50.926Z,14.60
2018-01-24T13:49:18.463Z,14.80
2018-01-24T13:51:46.767Z,14.10
2018-01-24T13:54:14.284Z,14.10
2018-01-24T13:56:42.033Z,14.40
2018-01-24T13:59:10.351Z,13.60
2018-01-24T14:01:37.929Z,13.50
2018-01-24T14:04:05.496Z,13.70
2018-01-24T14:06:33.080Z,13.90
2018-01-24T14:09:01.495Z,13.70
2018-01-24T14:11:29.859Z,13.60
2018-01-24T14:13:57.398Z,13.60
2018-01-24T14:16:25.153Z,13.40
2018-01-24T14:18:52.684Z,13.10
2018-01-24T14:21:20.225Z,13.10
2018-01-24T14:23:47.743Z,13.00
2018-01-24T14:26:15.298Z,13.00
2018-01-24T14:28:42.816Z,12.80
2018-01-24T14:31:10.335Z,12.80
2018-01-24T14:33:37.868Z,12.90
2018-01-24T14:36:05.379Z,12.80
2018-01-24T14:38:32.942Z,12.80
2018-01-24T14:41:00.472Z,12.80
2018-01-24T14:43:28.759Z,12.70
2018-01-24T14:45:57.074Z,12.80
2018-01-24T14:48:24.605Z,12.80
2018-01-24T14:50:52.287Z,12.90
2018-01-24T14:53:19.824Z,12.90
2018-01-24T14:55:47.343Z,12.80
2018-01-24T14:58:16.406Z,12.70
2018-01-24T15:00:43.937Z,12.70
2018-01-24T15:03:11.475Z,12.70
2018-01-24T15:05:39.760Z,12.40
2018-01-24T15:08:08.053Z,12.40
2018-01-24T15:10:35.600Z,12.30
2018-01-24T15:13:04.225Z,12.30
2018-01-24T15:15:31.790Z,12.30
2018-01-24T15:17:59.303Z,12.30
2018-01-24T15:20:26.823Z,12.20
2018-01-24T15:22:54.377Z,12.20
2018-01-24T15:25:21.930Z,12.10
2018-01-24T15:27:49.566Z,12.10
2018-01-24T15:30:17.079Z,12.10
2018-01-24T15:32:45.378Z,11.90
2018-01-24T15:35:12.911Z,11.90
2018-01-24T15:37:40.441Z,11.80
2018-01-24T15:40:07.998Z,11.80
2018-01-24T15:42:35.515Z,11.80
2018-01-24T15:45:03.046Z,11.70
2018-01-24T15:47:31.354Z,11.60
2018-01-24T15:49:58.881Z,11.60
2018-01-24T15:52:26.428Z,11.50
2018-01-24T15:54:55.447Z,11.30
2018-01-24T15:57:23.748Z,11.30
2018-01-24T15:59:51.262Z,11.30
2018-01-24T16:02:18.875Z,11.20
2018-01-24T16:04:46.407Z,11.00
2018-01-24T16:07:13.950Z,11.10
2018-01-24T16:09:42.260Z,11.00
2018-01-24T16:12:09.781Z,11.00
2018-01-24T16:14:38.077Z,11.00
2018-01-24T16:17:05.619Z,11.00
2018-01-24T16:19:33.917Z,10.90
2018-01-24T16:22:01.904Z,10.80
2018-01-24T16:24:29.463Z,10.80
2018-01-24T16:26:57.001Z,10.80
2018-01-24T16:29:24.580Z,10.60
2018-01-24T16:31:52.112Z,10.50
2018-01-24T16:34:19.666Z,10.50
2018-01-24T16:36:47.974Z,10.40
2018-01-24T16:39:15.514Z,10.30
2018-01-24T16:41:43.056Z,10.00
2018-01-24T16:44:11.350Z,9.90
2018-01-24T16:46:38.891Z,9.90
2018-01-24T16:49:07.182Z,10.10
2018-01-24T16:51:34.713Z,10.10
2018-01-24T16:54:02.261Z,10.00
2018-01-24T16:56:29.798Z,10.00
2018-01-24T16:58:57.345Z,9.90
2018-01-24T17:01:24.866Z,9.90
2018-01-24T17:03:53.165Z,10.00
2018-01-24T17:06:21.053Z,10.00
2018-01-24T17:08:48.597Z,10.10
2018-01-24T17:11:16.149Z,10.00
2018-01-24T17:13:43.668Z,9.90
2018-01-24T17:16:11.959Z,9.90
2018-01-24T17:18:40.772Z,10.00
2018-01-24T17:21:08.557Z,10.00
2018-01-24T17:23:36.100Z,10.10
2018-01-24T17:26:03.615Z,10.10
2018-01-24T17:28:31.165Z,10.00
2018-01-24T17:30:58.727Z,10.10
2018-01-24T17:33:27.025Z,10.00
2018-01-24T17:35:55.345Z,10.00
2018-01-24T17:38:22.867Z,10.00
2018-01-24T17:40:50.387Z,10.00
2018-01-24T17:43:17.915Z,9.90
2018-01-24T17:45:45.585Z,9.90
2018-01-24T17:48:13.139Z,9.90
2018-01-24T17:50:40.683Z,9.80
2018-01-24T17:53:08.232Z,9.80
2018-01-24T17:55:35.781Z,9.90
2018-01-24T17:58:03.582Z,10.00
2018-01-24T18:00:31.140Z,10.00
2018-01-24T18:02:58.670Z,10.10
2018-01-24T18:05:26.291Z,10.00
2018-01-24T18:07:53.882Z,10.00
2018-01-24T18:10:21.422Z,9.90
2018-01-24T18:12:48.999Z,9.90
2018-01-24T18:15:16.542Z,9.90
2018-01-24T18:17:44.131Z,10.00
2018-01-24T18:20:11.692Z,9.90
2018-01-24T18:22:39.407Z,10.00
2018-01-24T18:25:06.965Z,10.00
2018-01-24T18:27:34.482Z,10.00
2018-01-24T18:30:02.022Z,10.00
2018-01-24T18:32:29.572Z,9.90
2018-01-24T18:34:57.865Z,9.80
2018-01-24T18:37:25.413Z,9.80
2018-01-24T18:39:52.927Z,9.80
2018-01-24T18:42:20.485Z,9.70
2018-01-24T18:44:48.021Z,9.70
2018-01-24T18:47:15.637Z,9.60
2018-01-24T18:49:43.940Z,9.40
2018-01-24T18:52:11.455Z,9.40
2018-01-24T18:54:39.840Z,9.30
2018-01-24T18:57:08.169Z,9.20
2018-01-24T18:59:35.937Z,9.20
2018-01-24T19:02:03.481Z,9.20
2018-01-24T19:04:30.991Z,9.20
2018-01-24T19:06:58.526Z,9.00
2018-01-24T19:09:26.081Z,8.90
2018-01-24T19:11:53.869Z,8.50
2018-01-24T19:14:21.417Z,8.40
2018-01-24T19:16:50.071Z,8.20
2018-01-24T19:19:17.604Z,8.20
2018-01-24T19:21:45.156Z,8.30
2018-01-24T19:24:12.671Z,8.30
2018-01-24T19:26:40.225Z,8.40
2018-01-24T19:29:07.754Z,8.10
2018-01-24T19:31:36.086Z,8.20
2018-01-24T19:34:03.642Z,8.30
2018-01-24T19:36:31.172Z,8.40
2018-01-24T19:38:58.727Z,8.40
2018-01-24T19:41:26.239Z,8.50
2018-01-24T19:43:53.788Z,8.50
2018-01-24T19:46:22.107Z,8.50
2018-01-24T19:48:49.713Z,8.50
2018-01-24T19:51:17.531Z,8.50
2018-01-24T19:53:45.062Z,8.20
2018-01-24T19:56:12.571Z,8.30
2018-01-24T19:58:40.125Z,8.40
2018-01-24T20:01:07.810Z,8.30
2018-01-24T20:03:37.680Z,8.50
2018-01-24T20:06:05.564Z,8.60
2018-01-24T20:08:34.236Z,8.80
2018-01-24T20:11:02.721Z,8.80
2018-01-24T20:13:31.239Z,8.90
2018-01-24T20:15:59.879Z,8.70
2018-01-24T20:18:27.565Z,8.70
2018-01-24T20:20:56.746Z,8.50
2018-01-24T20:23:24.306Z,8.50
2018-01-24T20:25:52.376Z,8.40
2018-01-24T20:28:19.960Z,8.40
2018-01-24T20:30:47.474Z,8.30
2018-01-24T20:33:15.007Z,8.20
2018-01-24T20:35:43.649Z,8.50
2018-01-24T20:38:11.202Z,8.50
2018-01-24T20:40:38.788Z,8.60
2018-01-24T20:43:07.174Z,8.20
2018-01-24T20:45:35.469Z,8.00
2018-01-24T20:48:03.025Z,8.00
2018-01-24T20:50:31.806Z,7.70
2018-01-24T20:53:00.189Z,7.60
2018-01-24T20:55:28.538Z,7.70
2018-01-24T20:57:58.136Z,7.70
2018-01-24T21:00:25.675Z,7.60
2018-01-24T21:02:53.287Z,7.60
2018-01-24T21:05:20.852Z,7.50
2018-01-24T21:07:49.286Z,7.30
2018-01-24T21:10:16.899Z,7.30
2018-01-24T21:12:44.470Z,7.20
2018-01-24T21:15:11.997Z,7.10
2018-01-24T21:17:40.308Z,6.90
2018-01-24T21:20:07.985Z,6.90
2018-01-24T21:22:35.545Z,6.70
2018-01-24T21:25:03.059Z,6.70
2018-01-24T21:27:32.466Z,6.70
2018-01-24T21:30:11.907Z,6.70
2018-01-24T21:32:52.185Z,6.80
2018-01-24T21:35:32.467Z,6.70
2018-01-24T21:37:59.997Z,6.70
2018-01-24T21:40:27.585Z,6.60
2018-01-24T21:42:55.129Z,6.70
2018-01-24T21:45:22.659Z,6.70
2018-01-24T21:47:50.195Z,6.80
2018-01-24T21:50:17.711Z,6.80
2018-01-24T21:52:45.242Z,6.70
2018-01-24T21:55:12.783Z,6.70
2018-01-24T21:57:41.078Z,6.30
2018-01-24T22:00:08.628Z,6.30
2018-01-24T22:02:36.170Z,6.30
2018-01-24T22:05:04.497Z,6.40
2018-01-24T22:07:32.019Z,6.40
2018-01-24T22:10:00.331Z,6.30
2018-01-24T22:12:27.863Z,6.30
2018-01-24T22:14:55.391Z,6.20
2018-01-24T22:17:22.938Z,6.20
2018-01-24T22:19:50.473Z,6.30
2018-01-24T22:22:18.020Z,6.30
2018-01-24T22:24:45.540Z,6.30
2018-01-24T22:27:13.826Z,6.30
2018-01-24T22:29:41.377Z,6.30
2018-01-24T22:32:09.663Z,6.30
2018-01-24T22:34:37.226Z,6.20
2018-01-24T22:37:04.758Z,6.20
2018-01-24T22:39:33.039Z,6.10
2018-01-24T22:42:01.348Z,6.20
2018-01-24T22:44:28.867Z,6.10
2018-01-24T22:46:56.409Z,6.10
2018-01-24T22:49:23.938Z,6.10
2018-01-24T22:51:51.472Z,6.10
2018-01-24T22:54:18.987Z,6.10
2018-01-24T22:56:46.524Z,6.10
2018-01-24T22:59:14.043Z,6.10
2018-01-24T23:01:41.641Z,6.10
2018-01-24T23:04:09.198Z,6.00
2018-01-24T23:06:36.732Z,6.00
2018-01-24T23:09:04.267Z,5.90
2018-01-24T23:11:32.551Z,6.00
2018-01-24T23:14:00.082Z,5.90
2018-01-24T23:16:27.614Z,5.90
2018-01-24T23:18:55.142Z,5.90
2018-01-24T23:21:22.693Z,5.80
2018-01-24T23:23:51.323Z,5.80
2018-01-24T23:26:19.179Z,5.80
2018-01-24T23:28:46.757Z,5.80
2018-01-24T23:31:14.308Z,5.90
2018-01-24T23:33:41.856Z,5.80
2018-01-24T23:36:09.384Z,5.80
2018-01-24T23:38:36.899Z,5.80
2018-01-24T23:41:04.432Z,5.80
2018-01-24T23:43:31.951Z,5.70
2018-01-24T23:45:59.517Z,5.70
2018-01-24T23:48:27.023Z,5.70
2018-01-24T23:50:54.539Z,5.70
2018-01-24T23:53:22.322Z,5.70
2018-01-24T23:55:50.058Z,5.60
2018-01-24T23:58:17.601Z,5.60
